Harrington, Maine
Current Conditions -  °F | °C
As of 12:55 AM on Wednesday 22 Oct 2014 (Local Time) from KBHB Reporting Station
Overcast Overcast  
Wind Chill: 43°   Ceiling: 900
Heat Index: 48°   Visibility: 9mi
Dew Point: 48°   Wind: 14mph
Humidity: 100%   Direction: 50°NE
Pressure: 30.15"   Gusts: 20mph
Location:  44.61°N, 67.82°W
Report Text: KBHB 220455Z AUTO 05012G17KT 9SM BKN009 BKN039 OVC060 09/09 A3015 RMK AO1 P0006
Loading
Personal Weather Stations






























Interactive Weather Map
Tropical Storm Tracking
New forecast layout! Learn more

10-Day Weather Forecast

Advertisements
Track Severe Weather on mobile